Time;durP1;ratioP1;P1;durP2;ratioP2;P2;SDS_P1;SDS_P2;PMS_P1;PMS_P2;Temp;Humidity;BMP_temperature;BMP_pressure;BME280_temperature;BME280_humidity;BME280_pressure;Samples;Min_cycle;Max_cycle;Signal;HPM_P1;HPM_P2
2024/03/04 00:00:20;;;;;;;;;;;;;;;19.46;47.92;100078.66;2068443;28;6298;-79
2024/03/04 00:01:21;;;;;;;;;;;;;;;19.45;47.93;100083.69;2068216;28;2364;-79
2024/03/04 00:02:23;;;;;;;;;;;;;;;19.46;47.92;100085.13;2069210;28;2211;-79
2024/03/04 00:03:24;;;;;;;;;;;;;;;19.43;48.00;100091.47;2068349;28;2410;-79
2024/03/04 00:04:26;;;;;;;;;;;;;;;19.42;48.06;100079.28;2068654;28;2293;-80
2024/03/04 00:05:28;;;;;;;;;;;;;;;19.43;47.99;100080.00;2066916;28;1669;-79
2024/03/04 00:06:29;;;;;;;;;;;;;;;19.44;47.94;100081.47;2069072;28;1609;-79
2024/03/04 00:07:31;;;;;;;;;;;;;;;19.44;47.93;100087.94;2067954;28;1858;-79
2024/03/04 00:08:32;;;;;;;;;;;;;;;19.45;47.90;100083.69;2068287;28;1647;-79
2024/03/04 00:09:34;;;;;;;;;;;;;;;19.45;47.76;100085.81;2067603;28;2253;-79
2024/03/04 00:10:36;;;;;;;;;;;;;;;19.44;47.93;100087.94;2068479;28;1604;-79
2024/03/04 00:11:38;;;;;;;;;;;;;;;19.44;47.89;100087.94;2066841;28;2372;-79
2024/03/04 00:12:40;;;;;;;;;;;;;;;19.42;47.82;100085.00;2070202;28;2410;-79
2024/03/04 00:13:41;;;;;;;;;;;;;;;19.41;47.86;100088.53;2068739;28;2273;-80
2024/03/04 00:14:43;;;;;;;;;;;;;;;19.41;47.90;100085.66;2067534;28;2049;-79
2024/03/04 00:15:44;;;;;;;;;;;;;;;19.39;47.93;100085.59;2068171;28;1594;-79
2024/03/04 00:16:48;;;;;;;;;;;;;;;19.39;47.94;100074.81;2067935;28;2316;-79
2024/03/04 00:17:50;;;;;;;;;;;;;;;19.40;47.86;100092.78;2068651;28;1667;-79
2024/03/04 00:18:51;;;;;;;;;;;;;;;19.41;47.87;100089.25;2067728;28;2303;-80
2024/03/04 00:19:54;;;;;;;;;;;;;;;19.41;47.85;100089.25;2069005;28;2384;-79
2024/03/04 00:20:55;;;;;;;;;;;;;;;19.40;47.84;100090.66;2069019;28;1780;-79
2024/03/04 00:21:57;;;;;;;;;;;;;;;19.39;47.86;100085.59;2068370;28;2296;-79
2024/03/04 00:22:58;;;;;;;;;;;;;;;19.40;47.88;100082.06;2068334;28;1801;-79
2024/03/04 00:24:00;;;;;;;;;;;;;;;19.43;47.79;100088.63;2068063;28;2312;-79
2024/03/04 00:25:01;;;;;;;;;;;;;;;19.41;47.77;100086.38;2069481;28;2346;-79
2024/03/04 00:26:06;;;;;;;;;;;;;;;19.41;47.86;100091.41;2068162;28;2625;-79
2024/03/04 00:27:07;;;;;;;;;;;;;;;19.41;47.75;100088.53;2068871;28;1565;-79
2024/03/04 00:28:09;;;;;;;;;;;;;;;19.41;47.82;100094.28;2069983;28;1703;-79
2024/03/04 00:29:10;;;;;;;;;;;;;;;19.39;47.86;100085.59;2068530;28;1874;-79
2024/03/04 00:30:12;;;;;;;;;;;;;;;19.36;47.94;100084.03;2067927;28;6074;-79
2024/03/04 00:31:14;;;;;;;;;;;;;;;19.36;47.86;100079.03;2069436;28;1588;-79
2024/03/04 00:32:15;;;;;;;;;;;;;;;19.38;47.82;100084.13;2067956;28;2289;-79
2024/03/04 00:33:17;;;;;;;;;;;;;;;19.38;47.86;100090.59;2068566;28;2299;-80
2024/03/04 00:34:19;;;;;;;;;;;;;;;19.38;47.74;100096.34;2067886;28;2242;-79
2024/03/04 00:35:20;;;;;;;;;;;;;;;19.38;47.83;100084.13;2069643;28;2320;-79
2024/03/04 00:36:22;;;;;;;;;;;;;;;19.39;47.81;100097.06;2069670;28;1807;-80
2024/03/04 00:37:24;;;;;;;;;;;;;;;19.39;47.77;100085.59;2068183;28;2324;-79
2024/03/04 00:38:26;;;;;;;;;;;;;;;19.39;47.80;100091.31;2068245;28;2092;-80
2024/03/04 00:39:27;;;;;;;;;;;;;;;19.37;47.82;100083.38;2067473;28;2291;-79
2024/03/04 00:40:29;;;;;;;;;;;;;;;19.39;47.62;100088.44;2067106;28;1915;-78
2024/03/04 00:41:30;;;;;;;;;;;;;;;19.39;47.81;100088.44;2068849;28;2381;-79
2024/03/04 00:42:32;;;;;;;;;;;;;;;19.38;47.79;100092.72;2067207;28;1895;-79
2024/03/04 00:43:33;;;;;;;;;;;;;;;19.38;47.68;100092.72;2066812;28;2308;-79
2024/03/04 00:44:35;;;;;;;;;;;;;;;19.37;47.76;100088.38;2069565;28;2329;-79
2024/03/04 00:45:37;;;;;;;;;;;;;;;19.39;47.70;100088.44;2069293;28;1654;-79
2024/03/04 00:46:45;;;;;;;;;;;;;;;19.38;47.72;100087.72;2068617;28;2383;-79
2024/03/04 00:47:46;;;;;;;;;;;;;;;19.37;47.76;100082.63;2067644;28;2057;-79
2024/03/04 00:48:49;;;;;;;;;;;;;;;19.36;47.69;100087.63;2066532;28;2964;-79
2024/03/04 00:49:50;;;;;;;;;;;;;;;19.36;47.73;100092.66;2068101;28;1917;-79
2024/03/04 00:50:52;;;;;;;;;;;;;;;19.36;47.71;100089.78;2069575;28;2269;-79
2024/03/04 00:51:54;;;;;;;;;;;;;;;19.36;47.69;100089.78;2068205;28;2305;-79
2024/03/04 00:52:58;;;;;;;;;;;;;;;19.36;47.74;100092.66;2069221;28;2319;-78
2024/03/04 00:53:59;;;;;;;;;;;;;;;19.37;47.59;100094.13;2070251;28;2328;-79
2024/03/04 00:55:01;;;;;;;;;;;;;;;19.37;47.60;100094.13;2069117;28;1600;-79
2024/03/04 00:56:03;;;;;;;;;;;;;;;19.37;47.55;100099.84;2067399;28;1772;-79
2024/03/04 00:57:07;;;;;;;;;;;;;;;19.35;47.64;100096.91;2070424;28;1756;-80
2024/03/04 00:58:09;;;;;;;;;;;;;;;19.35;47.68;100102.66;2070731;28;1656;-79
2024/03/04 00:59:12;;;;;;;;;;;;;;;19.35;47.46;100097.63;2067621;28;2831;-79
2024/03/04 01:00:14;;;;;;;;;;;;;;;19.34;47.61;100101.19;2068021;28;6147;-79
2024/03/04 01:01:16;;;;;;;;;;;;;;;19.34;47.60;100101.19;2067177;28;2366;-80
2024/03/04 01:02:18;;;;;;;;;;;;;;;19.35;47.63;100102.66;2068964;28;2347;-79
2024/03/04 01:03:19;;;;;;;;;;;;;;;19.35;47.64;100097.63;2068453;28;1672;-79
2024/03/04 01:04:21;;;;;;;;;;;;;;;19.35;47.65;100102.66;2066398;28;2306;-79
2024/03/04 01:05:22;;;;;;;;;;;;;;;19.35;47.62;100099.78;2067836;28;1887;-79
2024/03/04 01:06:23;;;;;;;;;;;;;;;19.35;47.55;100106.25;2068717;28;2297;-79
2024/03/04 01:07:24;;;;;;;;;;;;;;;19.35;47.58;100102.66;2069108;28;1669;-79
2024/03/04 01:08:26;;;;;;;;;;;;;;;19.35;47.58;100103.38;2070404;28;1701;-79
2024/03/04 01:09:27;;;;;;;;;;;;;;;19.35;47.59;100103.38;2066707;28;2260;-79
2024/03/04 01:10:29;;;;;;;;;;;;;;;19.35;47.56;100103.38;2068698;28;1637;-79
2024/03/04 01:11:30;;;;;;;;;;;;;;;19.34;47.62;100104.06;2068582;28;1640;-79
2024/03/04 01:12:32;;;;;;;;;;;;;;;19.33;47.54;100106.16;2068240;28;1716;-79
2024/03/04 01:13:33;;;;;;;;;;;;;;;19.34;47.59;100104.06;2067118;28;2237;-79
2024/03/04 01:14:38;;;;;;;;;;;;;;;19.34;47.44;100106.94;2068336;28;2194;-79
2024/03/04 01:15:39;;;;;;;;;;;;;;;19.34;47.58;100101.19;2070415;28;1649;-80
2024/03/04 01:16:41;;;;;;;;;;;;;;;19.33;47.53;100108.31;2069879;28;2423;-79
2024/03/04 01:17:42;;;;;;;;;;;;;;;19.34;47.52;100101.19;2066687;28;1743;-79
2024/03/04 01:18:45;;;;;;;;;;;;;;;19.33;47.54;100109.03;2070138;28;1720;-79
2024/03/04 01:19:46;;;;;;;;;;;;;;;19.33;47.58;100105.44;2068688;28;1684;-78
2024/03/04 01:20:49;;;;;;;;;;;;;;;19.35;47.42;100102.66;2068927;28;2320;-79
2024/03/04 01:21:51;;;;;;;;;;;;;;;19.34;47.52;100104.06;2066109;28;2845;-79
2024/03/04 01:22:52;;;;;;;;;;;;;;;19.33;47.57;100102.56;2067463;28;2344;-79
2024/03/04 01:23:54;;;;;;;;;;;;;;;19.32;47.49;100110.44;2069728;28;2041;-79
2024/03/04 01:24:55;;;;;;;;;;;;;;;19.33;47.58;100099.69;2068699;28;2434;-79
2024/03/04 01:25:56;;;;;;;;;;;;;;;19.33;47.62;100105.44;2067694;28;2292;-79
2024/03/04 01:26:58;;;;;;;;;;;;;;;19.33;47.56;100105.44;2069556;28;1851;-79
2024/03/04 01:27:59;;;;;;;;;;;;;;;19.34;47.60;100106.94;2066633;28;1697;-79
2024/03/04 01:29:01;;;;;;;;;;;;;;;19.34;47.54;100106.94;2068736;28;2404;-79
2024/03/04 01:30:03;;;;;;;;;;;;;;;19.34;47.64;100112.66;2068322;28;5979;-80
2024/03/04 01:31:04;;;;;;;;;;;;;;;19.33;47.57;100108.31;2069145;28;2319;-79
2024/03/04 01:32:06;;;;;;;;;;;;;;;19.34;47.64;100101.19;2069082;28;1669;-80
2024/03/04 01:33:08;;;;;;;;;;;;;;;19.33;47.71;100099.69;2069568;28;1784;-79
2024/03/04 01:34:09;;;;;;;;;;;;;;;19.34;47.55;100106.94;2067447;28;2247;-80
2024/03/04 01:35:15;;;;;;;;;;;;;;;19.34;47.60;100104.78;2068215;28;2753;-78
2024/03/04 01:36:16;;;;;;;;;;;;;;;19.35;47.57;100108.38;2067733;28;2324;-79
2024/03/04 01:37:18;;;;;;;;;;;;;;;19.36;47.59;100104.88;2066730;28;2447;-79
2024/03/04 01:38:19;;;;;;;;;;;;;;;19.35;47.55;100099.78;2068426;28;2465;-79
2024/03/04 01:39:21;;;;;;;;;;;;;;;19.35;47.52;100112.00;2067496;28;2292;-80
2024/03/04 01:40:22;;;;;;;;;;;;;;;19.35;47.64;100114.13;2068497;28;1802;-79
2024/03/04 01:41:24;;;;;;;;;;;;;;;19.36;47.66;100109.88;2069306;28;1930;-79
2024/03/04 01:42:26;;;;;;;;;;;;;;;19.36;47.60;100109.88;2068232;28;1596;-78
2024/03/04 01:43:27;;;;;;;;;;;;;;;19.37;47.61;100111.34;2068932;28;1549;-79
2024/03/04 01:44:33;;;;;;;;;;;;;;;19.36;47.60;100115.63;2066470;28;2252;-79
2024/03/04 01:45:34;;;;;;;;;;;;;;;19.36;47.67;100115.63;2067722;28;2257;-79
2024/03/04 01:46:36;;;;;;;;;;;;;;;19.36;47.56;100121.34;2067862;28;1930;-80
2024/03/04 01:47:37;;;;;;;;;;;;;;;19.35;47.70;100114.88;2066959;28;1613;-80
2024/03/04 01:48:39;;;;;;;;;;;;;;;19.36;47.58;100112.75;2066709;28;2289;-79
2024/03/04 01:49:42;;;;;;;;;;;;;;;19.35;47.62;100119.88;2067736;28;2339;-79
2024/03/04 01:50:44;;;;;;;;;;;;;;;19.35;47.74;100117.00;2067526;28;1565;-79
2024/03/04 01:51:46;;;;;;;;;;;;;;;19.35;47.74;100114.13;2068408;28;2303;-79
2024/03/04 01:52:49;;;;;;;;;;;;;;;19.35;47.63;100114.88;2067503;28;1563;-79
2024/03/04 01:53:50;;;;;;;;;;;;;;;19.35;47.70;100117.00;2067029;28;1816;-80
2024/03/04 01:54:55;;;;;;;;;;;;;;;19.35;47.75;100117.00;2068680;28;2174;-79
2024/03/04 01:55:59;;;;;;;;;;;;;;;19.36;47.57;100121.34;2068571;28;1643;-78
2024/03/04 01:57:01;;;;;;;;;;;;;;;19.35;47.67;100111.25;2067849;28;1596;-80
2024/03/04 01:58:04;;;;;;;;;;;;;;;19.36;47.61;100115.63;2067144;28;1580;-79
2024/03/04 01:59:05;;;;;;;;;;;;;;;19.35;47.66;100117.00;2067465;28;2321;-80
2024/03/04 02:00:11;;;;;;;;;;;;;;;19.35;47.59;100111.25;2066411;28;6324;-79
2024/03/04 02:01:13;;;;;;;;;;;;;;;19.35;47.69;100117.00;2067959;28;2352;-79
2024/03/04 02:02:16;;;;;;;;;;;;;;;19.35;47.66;100114.88;2068213;28;2352;-79
2024/03/04 02:03:18;;;;;;;;;;;;;;;19.35;47.72;100117.00;2065160;28;2350;-79
2024/03/04 02:04:20;;;;;;;;;;;;;;;19.36;47.63;100118.50;2068686;28;2288;-79
2024/03/04 02:05:21;;;;;;;;;;;;;;;19.35;47.65;100114.88;2067352;28;1583;-78
2024/03/04 02:06:23;;;;;;;;;;;;;;;19.34;47.71;100124.16;2067699;28;1655;-79
2024/03/04 02:07:24;;;;;;;;;;;;;;;19.35;47.69;100114.13;2067947;28;1683;-80
2024/03/04 02:08:26;;;;;;;;;;;;;;;19.36;47.69;100115.63;2066884;28;2360;-80
2024/03/04 02:09:29;;;;;;;;;;;;;;;19.36;47.65;100109.88;2064777;28;2160;-79
2024/03/04 02:10:30;;;;;;;;;;;;;;;19.36;47.54;100115.63;2067451;28;2247;-78
2024/03/04 02:11:33;;;;;;;;;;;;;;;19.34;47.67;100107.66;2067357;28;1839;-80
2024/03/04 02:12:35;;;;;;;;;;;;;;;19.35;47.54;100112.00;2067564;28;2379;-79
2024/03/04 02:13:37;;;;;;;;;;;;;;;19.36;47.60;100115.63;2068605;28;1657;-80
2024/03/04 02:14:38;;;;;;;;;;;;;;;19.35;47.62;100119.88;2066963;28;2343;-80
2024/03/04 02:15:40;;;;;;;;;;;;;;;19.35;47.59;100109.13;2067910;28;2438;-80
2024/03/04 02:16:41;;;;;;;;;;;;;;;19.35;47.61;100117.72;2067302;28;1665;-79
2024/03/04 02:17:43;;;;;;;;;;;;;;;19.34;47.47;100106.94;2068681;28;2241;-79
2024/03/04 02:18:44;;;;;;;;;;;;;;;19.33;47.54;100116.91;2067919;28;2348;-79
2024/03/04 02:19:46;;;;;;;;;;;;;;;19.33;47.65;100111.19;2068379;28;1840;-79
2024/03/04 02:20:49;;;;;;;;;;;;;;;19.33;47.64;100114.03;2067800;28;1584;-79
2024/03/04 02:21:56;;;;;;;;;;;;;;;19.33;47.62;100111.19;2068179;28;2052;-80
2024/03/04 02:22:57;;;;;;;;;;;;;;;19.33;47.65;100114.78;2066259;28;1655;-79
2024/03/04 02:23:58;;;;;;;;;;;;;;;19.34;47.61;100115.53;2067530;28;2315;-80
2024/03/04 02:25:00;;;;;;;;;;;;;;;19.33;47.48;100117.66;2068580;28;1597;-79
2024/03/04 02:26:01;;;;;;;;;;;;;;;19.34;47.62;100118.41;2070131;28;1665;-79
2024/03/04 02:27:05;;;;;;;;;;;;;;;19.33;47.53;100123.38;2068902;28;1664;-80
2024/03/04 02:28:07;;;;;;;;;;;;;;;19.34;47.52;100112.66;2067570;28;2387;-80
2024/03/04 02:29:10;;;;;;;;;;;;;;;19.33;47.45;100122.66;2067992;28;1741;-79
2024/03/04 02:30:11;;;;;;;;;;;;;;;19.33;47.54;100122.66;2065953;28;5998;-78
2024/03/04 02:31:13;;;;;;;;;;;;;;;19.32;47.54;100121.19;2066664;28;2288;-79
2024/03/04 02:32:16;;;;;;;;;;;;;;;19.32;47.55;100124.81;2068986;28;1719;-79
2024/03/04 02:33:20;;;;;;;;;;;;;;;19.33;47.52;100134.13;2069201;28;1698;-80
2024/03/04 02:34:21;;;;;;;;;;;;;;;19.31;47.47;100126.22;2068233;28;2368;-80
2024/03/04 02:35:22;;;;;;;;;;;;;;;19.32;47.49;100132.69;2069860;28;1685;-80
2024/03/04 02:36:24;;;;;;;;;;;;;;;19.32;47.38;100132.69;2069464;28;1738;-79
2024/03/04 02:37:25;;;;;;;;;;;;;;;19.33;47.43;100137.00;2070122;28;1633;-79
2024/03/04 02:38:28;;;;;;;;;;;;;;;19.32;47.41;100133.41;2068727;28;1722;-79
2024/03/04 02:39:29;;;;;;;;;;;;;;;19.32;47.43;100138.41;2069478;28;2387;-80
2024/03/04 02:40:31;;;;;;;;;;;;;;;19.32;47.41;100139.16;2069544;28;1712;-80
2024/03/04 02:41:33;;;;;;;;;;;;;;;19.33;47.32;100139.88;2069193;28;1992;-79
2024/03/04 02:42:34;;;;;;;;;;;;;;;19.33;47.28;100146.34;2068321;28;2368;-79
2024/03/04 02:43:35;;;;;;;;;;;;;;;19.33;47.39;100148.50;2069022;28;2335;-79
2024/03/04 02:44:37;;;;;;;;;;;;;;;19.32;47.41;100149.91;2068624;28;2397;-79
2024/03/04 02:45:38;;;;;;;;;;;;;;;19.31;47.35;100152.03;2069864;28;2446;-79
2024/03/04 02:46:41;;;;;;;;;;;;;;;19.30;47.30;100158.44;2068709;28;2296;-78
2024/03/04 02:47:42;;;;;;;;;;;;;;;19.29;47.32;100154.06;2070219;28;1664;-79
2024/03/04 02:48:44;;;;;;;;;;;;;;;19.29;47.43;100156.94;2068267;28;2071;-79
2024/03/04 02:49:46;;;;;;;;;;;;;;;19.30;47.38;100152.69;2069522;28;1938;-79
2024/03/04 02:50:49;;;;;;;;;;;;;;;19.29;47.49;100154.06;2068834;28;1671;-79
2024/03/04 02:51:50;;;;;;;;;;;;;;;19.29;47.29;100156.94;2070384;28;1650;-79
2024/03/04 02:52:52;;;;;;;;;;;;;;;19.27;47.26;100148.28;2068798;28;1677;-79
2024/03/04 02:53:53;;;;;;;;;;;;;;;19.29;47.30;100151.19;2068910;28;2199;-80
2024/03/04 02:54:54;;;;;;;;;;;;;;;19.29;47.23;100159.81;2069910;28;1580;-79
2024/03/04 02:55:56;;;;;;;;;;;;;;;19.30;47.25;100164.19;2069308;28;2222;-80
2024/03/04 02:56:58;;;;;;;;;;;;;;;19.28;47.35;100158.34;2067959;28;1801;-80
2024/03/04 02:57:59;;;;;;;;;;;;;;;19.28;47.31;100161.22;2070845;28;1609;-79
2024/03/04 02:59:00;;;;;;;;;;;;;;;19.28;47.28;100155.47;2068558;28;2191;-78
2024/03/04 03:00:02;;;;;;;;;;;;;;;19.28;47.37;100161.22;2070643;28;6185;-79
2024/03/04 03:01:04;;;;;;;;;;;;;;;19.29;47.29;100156.94;2069149;28;2230;-79
2024/03/04 03:02:05;;;;;;;;;;;;;;;19.27;47.27;100165.50;2069683;28;2209;-79
2024/03/04 03:03:07;;;;;;;;;;;;;;;19.27;47.27;100159.75;2069656;28;2258;-79
2024/03/04 03:04:08;;;;;;;;;;;;;;;19.26;47.27;100161.88;2068316;28;2120;-80
2024/03/04 03:05:10;;;;;;;;;;;;;;;19.25;47.17;100164.00;2068627;28;1640;-79
2024/03/04 03:06:12;;;;;;;;;;;;;;;19.27;47.25;100156.88;2069525;28;1644;-80
2024/03/04 03:07:13;;;;;;;;;;;;;;;19.24;47.27;100168.28;2067939;28;1934;-79
2024/03/04 03:08:14;;;;;;;;;;;;;;;19.25;47.14;100164.00;2067331;28;2213;-79
2024/03/04 03:09:17;;;;;;;;;;;;;;;19.24;47.28;100162.53;2068564;28;1616;-80
2024/03/04 03:10:18;;;;;;;;;;;;;;;19.27;47.21;100165.50;2070201;28;1867;-79
2024/03/04 03:11:20;;;;;;;;;;;;;;;19.27;47.11;100168.38;2067983;28;2048;-80
2024/03/04 03:12:21;;;;;;;;;;;;;;;19.27;47.07;100166.22;2069251;28;1616;-79
2024/03/04 03:13:22;;;;;;;;;;;;;;;19.27;47.17;100171.25;2069140;28;1585;-80
2024/03/04 03:14:25;;;;;;;;;;;;;;;19.25;47.20;100172.63;2067372;28;2130;-79
2024/03/04 03:15:27;;;;;;;;;;;;;;;19.25;47.23;100174.75;2069607;28;2166;-80
2024/03/04 03:16:28;;;;;;;;;;;;;;;19.24;47.22;100170.41;2068372;28;1632;-76
2024/03/04 03:17:29;;;;;;;;;;;;;;;19.23;47.12;100178.28;2068640;28;1691;-74
2024/03/04 03:18:31;;;;;;;;;;;;;;;19.24;47.14;100179.00;2067912;28;2077;-81
2024/03/04 03:19:33;;;;;;;;;;;;;;;19.23;47.12;100175.41;2068583;28;2186;-80
2024/03/04 03:20:34;;;;;;;;;;;;;;;19.21;47.12;100175.31;2069013;28;1771;-77
2024/03/04 03:21:36;;;;;;;;;;;;;;;19.20;47.17;100173.13;2068992;28;1986;-76
2024/03/04 03:22:37;;;;;;;;;;;;;;;19.19;47.25;100178.09;2068263;28;1682;-76
2024/03/04 03:23:41;;;;;;;;;;;;;;;19.19;47.18;100178.09;2068179;28;2153;-76
2024/03/04 03:24:42;;;;;;;;;;;;;;;19.20;47.24;100184.59;2067436;28;2248;-76
2024/03/04 03:25:43;;;;;;;;;;;;;;;19.19;47.23;100189.59;2067922;28;1612;-77
2024/03/04 03:26:46;;;;;;;;;;;;;;;19.20;47.22;100185.34;2068623;28;2234;-76
2024/03/04 03:27:47;;;;;;;;;;;;;;;19.20;47.33;100191.06;2069306;28;1644;-76
2024/03/04 03:28:48;;;;;;;;;;;;;;;19.20;47.12;100191.06;2069087;28;2349;-75
2024/03/04 03:29:50;;;;;;;;;;;;;;;19.21;47.22;100192.53;2069438;28;1651;-76
2024/03/04 03:30:51;;;;;;;;;;;;;;;19.21;47.36;100191.81;2068090;28;6078;-77
2024/03/04 03:31:52;;;;;;;;;;;;;;;19.23;47.26;100192.63;2067808;28;2075;-76
2024/03/04 03:32:54;;;;;;;;;;;;;;;19.22;47.26;100194.03;2067364;28;2377;-76
2024/03/04 03:33:55;;;;;;;;;;;;;;;19.22;47.39;100199.03;2070416;28;1648;-77
2024/03/04 03:34:56;;;;;;;;;;;;;;;19.22;47.32;100193.28;2068528;28;2336;-76
2024/03/04 03:35:58;;;;;;;;;;;;;;;19.24;47.26;100191.25;2069047;28;1632;-76
2024/03/04 03:37:00;;;;;;;;;;;;;;;19.23;47.22;100192.63;2069401;28;1609;-76
2024/03/04 03:38:01;;;;;;;;;;;;;;;19.25;47.34;100191.97;2068424;28;2285;-76
2024/03/04 03:39:04;;;;;;;;;;;;;;;19.27;47.29;100199.94;2068178;28;1700;-77
2024/03/04 03:40:07;;;;;;;;;;;;;;;19.26;47.21;100199.19;2069589;28;1711;-76
2024/03/04 03:41:08;;;;;;;;;;;;;;;19.28;47.29;100198.53;2068713;28;2158;-76
2024/03/04 03:42:11;;;;;;;;;;;;;;;19.29;47.15;100203.63;2069677;28;1914;-76
2024/03/04 03:43:12;;;;;;;;;;;;;;;19.30;47.21;100198.63;2067256;28;2281;-75
2024/03/04 03:44:14;;;;;;;;;;;;;;;19.31;47.11;100200.09;2067304;28;2006;-76
2024/03/04 03:45:15;;;;;;;;;;;;;;;19.31;47.17;100194.34;2067179;28;2249;-76
2024/03/04 03:46:16;;;;;;;;;;;;;;;19.32;47.18;100195.84;2070436;28;1676;-76
2024/03/04 03:47:18;;;;;;;;;;;;;;;19.33;47.20;100197.28;2068282;28;1789;-76
2024/03/04 03:48:19;;;;;;;;;;;;;;;19.33;47.16;100194.44;2069693;28;2178;-76
2024/03/04 03:49:20;;;;;;;;;;;;;;;19.34;47.11;100193.03;2069103;28;2161;-76
2024/03/04 03:50:22;;;;;;;;;;;;;;;19.34;47.14;100190.19;2068052;28;2245;-76
2024/03/04 03:51:23;;;;;;;;;;;;;;;19.34;47.22;100193.78;2069138;28;1651;-76
2024/03/04 03:52:25;;;;;;;;;;;;;;;19.34;47.22;100201.66;2068491;28;2237;-76
2024/03/04 03:53:26;;;;;;;;;;;;;;;19.35;47.25;100206.00;2067521;28;2146;-76
2024/03/04 03:54:27;;;;;;;;;;;;;;;19.34;47.23;100196.66;2068493;28;1631;-76
2024/03/04 03:55:29;;;;;;;;;;;;;;;19.33;47.29;100192.28;2069291;28;2187;-76
2024/03/04 03:56:30;;;;;;;;;;;;;;;19.33;47.26;100197.28;2069250;28;1753;-76
2024/03/04 03:57:31;;;;;;;;;;;;;;;19.33;47.32;100198.03;2068015;28;2148;-76
2024/03/04 03:58:51;;;;;;;;;;;;;;;19.33;47.33;100203.03;2068550;28;2290;-76
2024/03/04 03:59:53;;;;;;;;;;;;;;;19.32;47.37;100205.19;2068858;28;1688;-76
2024/03/04 04:00:55;;;;;;;;;;;;;;;19.32;47.33;100207.31;2067463;28;6107;-76
2024/03/04 04:01:57;;;;;;;;;;;;;;;19.33;47.41;100205.91;2068220;28;1914;-76
2024/03/04 04:02:59;;;;;;;;;;;;;;;19.32;47.33;100210.91;2068270;28;2016;-76
2024/03/04 04:04:00;;;;;;;;;;;;;;;19.32;47.44;100205.19;2068058;28;2187;-76
2024/03/04 04:05:02;;;;;;;;;;;;;;;19.33;47.32;100208.78;2068708;28;2146;-76
2024/03/04 04:06:04;;;;;;;;;;;;;;;19.33;47.43;100208.78;2068563;28;2197;-76
2024/03/04 04:07:05;;;;;;;;;;;;;;;19.33;47.43;100203.75;2067553;28;2184;-77
2024/03/04 04:08:06;;;;;;;;;;;;;;;19.34;47.33;100205.25;2069728;28;1643;-76
2024/03/04 04:09:08;;;;;;;;;;;;;;;19.34;47.36;100211.00;2069641;28;1637;-76
2024/03/04 04:10:09;;;;;;;;;;;;;;;19.35;47.36;100217.47;2067678;28;1660;-76
2024/03/04 04:11:11;;;;;;;;;;;;;;;19.35;47.37;100217.47;2067101;28;2401;-76
2024/03/04 04:12:12;;;;;;;;;;;;;;;19.36;47.28;100216.09;2069996;28;1626;-76
2024/03/04 04:13:13;;;;;;;;;;;;;;;19.37;47.26;100211.81;2068963;28;1711;-76
2024/03/04 04:14:15;;;;;;;;;;;;;;;19.38;47.30;100210.44;2068320;28;2154;-76
2024/03/04 04:15:16;;;;;;;;;;;;;;;19.37;47.21;100203.94;2066325;28;2170;-75
2024/03/04 04:16:18;;;;;;;;;;;;;;;19.39;47.19;100217.66;2069401;28;1608;-76
2024/03/04 04:17:19;;;;;;;;;;;;;;;19.40;47.27;100219.09;2068951;28;1622;-76
2024/03/04 04:18:20;;;;;;;;;;;;;;;19.40;47.13;100225.59;2067544;28;1978;-76
2024/03/04 04:19:22;;;;;;;;;;;;;;;19.39;47.23;100211.91;2067303;28;2175;-76
2024/03/04 04:20:27;;;;;;;;;;;;;;;19.37;47.30;100218.28;2067273;28;2279;-77
2024/03/04 04:21:28;;;;;;;;;;;;;;;19.37;47.30;100214.69;2067416;28;2165;-77
2024/03/04 04:22:29;;;;;;;;;;;;;;;19.37;47.35;100220.44;2068362;28;2320;-76
2024/03/04 04:23:33;;;;;;;;;;;;;;;19.37;47.25;100223.31;2067474;28;2203;-76
2024/03/04 04:24:38;;;;;;;;;;;;;;;19.37;47.37;100220.44;2067944;28;2143;-75
2024/03/04 04:25:39;;;;;;;;;;;;;;;19.37;47.35;100226.19;2066902;28;2436;-76
2024/03/04 04:26:41;;;;;;;;;;;;;;;19.36;47.45;100227.59;2067914;28;1719;-76
2024/03/04 04:27:43;;;;;;;;;;;;;;;19.35;47.45;100215.34;2067635;28;2142;-76
2024/03/04 04:28:44;;;;;;;;;;;;;;;19.36;47.35;100221.84;2067329;28;2620;-77
2024/03/04 04:29:46;;;;;;;;;;;;;;;19.37;47.30;100220.44;2068244;28;2199;-75
2024/03/04 04:30:47;;;;;;;;;;;;;;;19.36;47.39;100219.69;2065075;28;6142;-76
2024/03/04 04:31:49;;;;;;;;;;;;;;;19.37;47.39;100226.19;2067922;28;1648;-76
2024/03/04 04:32:50;;;;;;;;;;;;;;;19.37;47.34;100220.44;2068210;28;1646;-76
2024/03/04 04:33:51;;;;;;;;;;;;;;;19.38;47.28;100227.66;2068152;28;1862;-76
2024/03/04 04:34:53;;;;;;;;;;;;;;;19.38;47.36;100219.78;2068223;28;2174;-76
2024/03/04 04:35:54;;;;;;;;;;;;;;;19.39;47.29;100223.38;2067814;28;1620;-76
2024/03/04 04:36:57;;;;;;;;;;;;;;;19.40;47.30;100224.84;2067999;28;1577;-76
2024/03/04 04:37:58;;;;;;;;;;;;;;;19.40;47.10;100231.34;2066796;28;2266;-76
2024/03/04 04:39:00;;;;;;;;;;;;;;;19.42;47.25;100233.53;2068017;28;1599;-75
2024/03/04 04:40:01;;;;;;;;;;;;;;;19.41;47.25;100232.81;2068741;28;2266;-76
2024/03/04 04:41:02;;;;;;;;;;;;;;;19.42;47.21;100227.81;2068677;28;1724;-76
2024/03/04 04:42:05;;;;;;;;;;;;;;;19.43;47.29;100232.16;2066395;28;2211;-76
2024/03/04 04:43:08;;;;;;;;;;;;;;;19.43;47.26;100229.28;2067879;28;1989;-76
2024/03/04 04:44:10;;;;;;;;;;;;;;;19.44;47.27;100233.63;2067279;28;2310;-76
2024/03/04 04:45:11;;;;;;;;;;;;;;;19.43;47.27;100229.28;2066504;28;2182;-76
2024/03/04 04:46:13;;;;;;;;;;;;;;;19.43;47.27;100237.91;2067664;28;1989;-76
2024/03/04 04:47:14;;;;;;;;;;;;;;;19.43;47.18;100241.50;2068817;28;2230;-76
2024/03/04 04:48:16;;;;;;;;;;;;;;;19.43;47.31;100237.91;2066697;28;2047;-76
2024/03/04 04:49:17;;;;;;;;;;;;;;;19.42;47.24;100233.53;2067758;28;2143;-76
2024/03/04 04:50:20;;;;;;;;;;;;;;;19.42;47.20;100245.78;2066900;28;2353;-76
2024/03/04 04:51:22;;;;;;;;;;;;;;;19.41;47.38;100237.81;2068182;28;2159;-76
2024/03/04 04:52:23;;;;;;;;;;;;;;;19.42;47.33;100240.06;2067439;28;1736;-76
2024/03/04 04:53:24;;;;;;;;;;;;;;;19.41;47.25;100244.31;2068184;28;1621;-76
2024/03/04 04:54:26;;;;;;;;;;;;;;;19.40;47.44;100242.84;2068377;28;1566;-76
2024/03/04 04:55:27;;;;;;;;;;;;;;;19.41;47.39;100246.44;2066889;28;2270;-76
2024/03/04 04:56:28;;;;;;;;;;;;;;;19.40;47.45;100242.06;2068918;28;2308;-76
2024/03/04 04:57:30;;;;;;;;;;;;;;;19.40;47.37;100247.81;2069693;28;1671;-76
2024/03/04 04:58:31;;;;;;;;;;;;;;;19.39;47.48;100243.47;2069497;28;1706;-75
2024/03/04 04:59:33;;;;;;;;;;;;;;;19.40;47.32;100242.06;2068623;28;2145;-76
2024/03/04 05:00:34;;;;;;;;;;;;;;;19.39;47.50;100252.09;2067572;28;6139;-76
2024/03/04 05:01:36;;;;;;;;;;;;;;;19.40;47.54;100247.81;2067419;28;2206;-75
2024/03/04 05:02:38;;;;;;;;;;;;;;;19.40;47.42;100242.06;2066701;28;2206;-76
2024/03/04 05:03:39;;;;;;;;;;;;;;;19.40;47.45;100253.56;2067319;28;2166;-76
2024/03/04 05:05:00;;;;;;;;;;;;;;;19.40;47.38;100242.06;2066155;28;2238;-76
2024/03/04 05:06:02;;;;;;;;;;;;;;;19.42;47.40;100245.78;2068020;28;2598;-77
2024/03/04 05:07:04;;;;;;;;;;;;;;;19.42;47.34;100245.78;2068977;28;2266;-76
2024/03/04 05:08:05;;;;;;;;;;;;;;;19.44;47.35;100248.00;2068326;28;1561;-76
2024/03/04 05:09:08;;;;;;;;;;;;;;;19.44;47.39;100242.25;2066959;28;2333;-76
2024/03/04 05:10:09;;;;;;;;;;;;;;;19.43;47.23;100240.78;2068179;28;1637;-76
2024/03/04 05:11:11;;;;;;;;;;;;;;;19.43;47.21;100252.25;2068128;28;1930;-76
2024/03/04 05:12:12;;;;;;;;;;;;;;;19.44;47.26;100253.72;2067567;28;1632;-75
2024/03/04 05:13:13;;;;;;;;;;;;;;;19.44;47.31;100245.13;2065159;28;4458;-76
2024/03/04 05:14:16;;;;;;;;;;;;;;;19.45;47.38;100249.47;2068650;28;2223;-76
2024/03/04 05:15:17;;;;;;;;;;;;;;;19.45;47.22;100246.59;2067209;28;2608;-76
2024/03/04 05:16:19;;;;;;;;;;;;;;;19.44;47.31;100250.84;2065104;28;2379;-77
2024/03/04 05:17:20;;;;;;;;;;;;;;;19.44;47.30;100242.25;2067618;28;2266;-77
2024/03/04 05:18:22;;;;;;;;;;;;;;;19.43;47.21;100241.50;2066937;28;2200;-77
2024/03/04 05:19:25;;;;;;;;;;;;;;;19.42;47.31;100240.06;2067027;28;2702;-77
2024/03/04 05:20:26;;;;;;;;;;;;;;;19.42;47.25;100245.03;2067705;28;1966;-77
2024/03/04 05:21:28;;;;;;;;;;;;;;;19.42;47.43;100242.16;2065959;28;4273;-77
2024/03/04 05:22:29;;;;;;;;;;;;;;;19.42;47.39;100239.28;2067075;28;2628;-74